Weather observations for the past three days for
Richard I. Bong Airport
Metric (Imperial)
Date Time (cdt) Wind (kph) Vis. (km) Weather Sky Cond. Temperature (ºC) Relative Humidity Wind Chill (°C) Heat Index (°C) Pressure Precipitation (cm)
Air Dwpt 6 hour altimeter (cm) sea level (mb) 1 hr 3 hr 6 hr
Max. Min.
01 16:15 W 19 G 26 16.09 Fair CLR 28 12.3 38% 28 75.87 0.0
01 15:55 W 20 G 28 16.09 Fair CLR 28.4 11.2 34% 28 75.87 0.0
01 15:35 W 19 G 28 16.09 Fair CLR 28.7 11.6 35% 28 75.87 0.0
01 15:15 W 24 G 31 16.09 Fair CLR 29.3 12.2 35% 28 75.87 0.0
01 14:55 W 17 G 30 16.09 Fair CLR 28.9 12.5 36% 28 75.9 0.0
01 14:35 W 19 G 37 16.09 Fair CLR 28.6 12 36% 28 75.9 0.0
01 14:15 W 22 G 33 16.09 Fair CLR 28.3 12.3 37% 28 75.92 0.0
01 13:55 W 26 G 33 16.09 Fair CLR 28.6 12 36% 28 75.92 0.0
01 13:35 W 24 G 30 16.09 Fair CLR 28.6 12.5 37% 28 75.95 0.0
01 13:15 W 24 G 37 16.09 Fair CLR 28.3 11.9 36% 28 75.95 0.0
01 12:55 W 22 G 28 16.09 Fair CLR 27.9 12.8 27.9 15 39% 28 75.97 0.0
01 12:35 SW 19 16.09 Fair CLR 27.5 13.4 42% 27 76 0.0
01 12:15 SW 11 16.09 Fair CLR 26.7 15.3 50% 27 76 0.0
01 11:55 W 11 16.09 Fair CLR 26.2 16 53% 27 76 0.0
01 11:35 SW 11 16.09 Fair CLR 25.5 15.9 55% 26 76.02 0.0
01 11:15 W 15 16.09 Fair CLR 25 15.2 55% 26 76.02 0.0
01 10:55 SW 9 16.09 Fair CLR 24.6 15.9 58% 26 76.05 0.0
01 10:35 SW 13 16.09 Fair CLR 23.6 15.4 60% 76.05 0.0
01 10:15 SW 13 16.09 Fair CLR 22.6 15.2 63% 76.05 0.0
01 09:55 SW 11 16.09 Fair CLR 21.8 15.2 66% 76.05 0.0
01 09:35 S 9 16.09 Fair CLR 20.8 14.9 69% 76.05 0.0
01 09:15 SW 13 16.09 Fair CLR 20 14.9 73% 76.05 0.0
01 08:55 SW 9 16.09 Fair CLR 19 15 78% 76.05 0.0
01 08:35 SW 9 16.09 Fair CLR 17.8 14.5 81% 76.05 0.0
01 08:15 SW 9 16.09 Fair CLR 16.9 14.2 84% 76.02 0.0
01 07:55 SW 11 16.09 Fair CLR 16.2 13.8 86% 76.02 0.0
01 07:35 SW 11 16.09 Fair CLR 15.8 13.6 87% 76 0.0
01 07:15 SW 11 16.09 Fair CLR 15.3 13.4 89% 76 0.0
01 06:55 SW 9 16.09 Fair CLR 15 13.3 17 14.5 90% 75.97 0.0
01 06:35 SW 11 16.09 Fair CLR 15 13.4 90% 75.95 0.0
01 06:15 S 13 16.09 Fair CLR 14.5 13.3 93% 75.95 0.0
01 05:55 SW 9 16.09 Fair CLR 15.1 13.6 91% 75.92 0.0
01 05:35 SW 13 16.09 Fair CLR 15.2 13.8 91% 75.92 0.0
01 05:15 SW 11 16.09 Fair CLR 15.5 14 91% 75.9 0.0
01 04:55 SW 13 16.09 Fair CLR 15.5 14.2 92% 75.9 0.0
01 04:35 SW 9 16.09 Fair CLR 15.5 14.5 94% 75.9 0.0
01 04:15 SW 7 16.09 Fair CLR 15.5 14.5 94% 75.9 0.0
01 03:55 S 9 16.09 Fair CLR 15.5 14.5 94% 75.9 0.0
01 03:35 SW 9 16.09 Fair CLR 15.7 14.6 93% 75.9 0.0
01 03:15 SW 9 16.09 Fair CLR 15.6 14.6 94% 75.9 0.0
01 02:55 SW 11 16.09 Fair CLR 15.7 14.6 93% 75.92 0.0
01 02:35 SW 13 16.09 Fair CLR 15.7 14.7 94% 75.92 0.0
01 02:15 SW 13 16.09 Fair CLR 15.8 14.8 94% 75.92 0.0
01 01:55 SW 11 16.09 Fair CLR 15.6 14.6 94% 75.92 0.0
01 01:35 SW 7 16.09 Fair CLR 16.1 15 93% 75.95 0.0
01 01:15 SW 7 16.09 Fair CLR 16.7 15.4 92% 75.95 0.0
01 00:55 SW 9 16.09 Fair CLR 16.7 15.5 25.5 14.6 93% 75.92 0.0
01 00:35 SW 7 16.09 Fair CLR 17 15.6 92% 75.92 0.0
01 00:15 SW 7 16.09 Fair CLR 17.1 15.7 92% 75.92 0.0
31 23:55 SW 7 16.09 Fair CLR 17.3 15.8 91% 75.92 0.0
31 23:35 SW 9 16.09 Fair CLR 17.3 16 92% 75.92 0.0
31 23:15 SW 9 16.09 Fair CLR 15 14.1 94% 75.9 0.0
31 22:55 SW 6 16.09 Fair CLR 17.5 15.5 88% 75.9 0.0
31 22:35 SW 9 16.09 Fair CLR 16.4 14.8 90% 75.87 0.0
31 22:15 S 7 16.09 Fair CLR 15.4 14 91% 75.87 0.0
31 21:55 SW 6 16.09 Fair CLR 17.4 15.5 89% 75.87 0.0
31 21:35 SW 7 16.09 Fair CLR 17.5 17 97% 75.87 0.0
31 21:15 SW 6 4.02 Fog/Mist CLR 17.2 16.6 96% 75.87 0.0
31 20:55 Calm 2.01 Fog/Mist VV007 17.7 17 96% 75.87 0.0
31 20:35 Calm 16.09 Fair CLR 18.8 18.2 96% 75.84 0.0
31 20:15 Calm 8.05 Fog/Mist CLR 19.3 18.5 95% 75.82 0.0
31 19:55 Calm 16.09 Fair CLR 20.8 19.4 92% 75.82 0.0
31 19:35 Calm 16.09 Fair CLR 22.9 20.5 86% 75.82 0.0
31 19:15 Calm 16.09 Fair CLR 24.8 20.6 78% 26 75.79 0.0
31 18:55 Calm 16.09 Fair CLR 25.5 20.4 28.5 23 73% 27 75.79 0.0
31 18:35 Calm 16.09 Fair CLR 26.3 20.4 70% 28 75.79 0.0
31 18:15 Calm 16.09 Fair CLR 27.2 20.6 67% 29 75.79 0.0
31 17:55 Calm 16.09 Fair CLR 28.1 20.7 64% 30 75.77 0.0
31 17:35 Calm 16.09 Fair CLR 28.1 20.5 63% 30 75.77 0.0
31 17:15 Calm 16.09 Fair CLR 27.8 20.7 65% 30 75.77 0.0
31 16:55 Calm 16.09 Fair CLR 27.5 20.3 65% 29 75.79 0.0
31 16:35 N 6 16.09 Fair CLR 26.7 20.2 68% 28 75.79 0.0
31 16:15 NE 6 16.09 Fair CLR 26.5 20.1 68% 28 75.79 0.0
31 15:55 NE 6 16.09 Fair CLR 25.4 19.6 70% 26 75.79 0.0
31 15:35 Calm 16.09 Fair CLR 24.9 19.5 72% 26 75.79 0.0
31 15:15 NE 7 16.09 Fair CLR 24.6 19.4 73% 25 75.79 0.0
31 14:55 NE 9 16.09 Fair CLR 25.9 20.5 72% 27 75.79 0.0
31 14:35 E 6 16.09 Fair CLR 26.1 20.4 71% 27 75.79 0.0
31 14:15 NE 6 16.09 Fair CLR 24.7 19.9 75% 26 75.79 0.0
31 13:55 Calm 16.09 Partly Cloudy SCT012 SCT017 SCT022 23.9 19.6 77% 24 75.79 0.0
31 13:15 Calm 16.09 Overcast OVC012 23 19.9 83% 75.79 0.0
31 12:55 Calm 16.09 Overcast OVC012 23.2 19.6 23.3 16.7 80% 75.79 0.0
31 12:35 NE 6 16.09 Overcast BKN007 OVC014 22.8 19.6 82% 75.79 0.0
31 12:15 W 6 16.09 Overcast OVC007 21.9 19.6 87% 75.79 0.0
31 11:55 Calm 16.09 Overcast OVC007 21.5 19.3 87% 75.79 0.0
31 11:35 Calm 16.09 Overcast OVC005 21 19.1 89% 75.77 0.0
31 11:15 Calm 11.27 Overcast OVC005 20.4 19 92% 75.77 0.0
31 10:55 Calm 11.27 Overcast OVC003 19.7 18.8 95% 75.77 0.0
31 10:35 Calm 6.44 Fog/Mist OVC003 19.5 18.7 95% 75.74 0.0
31 10:15 Calm 6.44 Fog/Mist OVC003 19.1 18.7 98% 75.74 0.0
31 09:55 W 6 4.83 Fog/Mist OVC003 18.6 18.1 97% 75.72 0.0
31 09:35 Calm 4.83 Fog/Mist OVC003 18.1 17.8 98% 75.72 0.0
31 09:15 Calm 2.82 Fog/Mist OVC003 17.7 17.5 99% 75.72 0.0
31 08:55 Calm 2.82 Fog/Mist OVC003 17.6 17.3 98% 75.69 0.0
31 08:35 Calm 2.41 Fog/Mist OVC003 17.4 17.1 98% 75.67 0.0
31 08:15 E 7 2.41 Fog/Mist OVC003 17.3 17 98% 75.69 0.0
31 07:55 E 6 2.41 Fog/Mist OVC003 17 16.6 98% 75.72 0.0
31 07:35 NE 7 2.01 Fog/Mist OVC003 16.7 16.5 99% 75.69 0.0
31 07:15 NE 7 2.82 Fog/Mist OVC003 16.7 16.3 98% 75.69 0.0
31 06:55 N 7 4.83 Fog/Mist OVC003 16.7 16.4 17 16 98% 75.67 0.0
31 06:35 Calm 4.83 Fog/Mist OVC003 16.7 16.3 98% 75.67 0.0
31 06:15 NE 11 6.44 Fog/Mist OVC003 16.6 16.2 98% 75.67 0.0
31 05:55 E 7 8.05 Fog/Mist OVC003 16.7 16.5 99% 75.67 0.0
31 05:35 NE 13 6.44 Fog/Mist OVC003 16.7 16.5 99% 75.67 0.0
31 05:15 E 19 8.05 Fog/Mist OVC003 16.7 16.5 99% 75.64 0.0
31 04:55 E 17 G 28 8.05 Light Rain OVC003 16.7 16.5 99% 75.69 0.0
31 04:35 NE 17 6.44 Rain OVC003 16.8 16.5 98% 75.67 0.0
31 04:20 NE 13 6.44 Light Rain OVC003 17 16.6 98% 75.69 0.0
31 03:55 NE 7 0.80 Fog OVC003 16.4 16 98% 75.67 0.0
31 03:35 NE 7 0.80 Fog OVC003 16 15.5 97% 75.67 0.0
31 03:15 N 11 0.80 Fog OVC003 16 15.5 97% 75.67 0.0
31 02:55 NE 11 1.21 Fog/Mist OVC003 16.1 15.7 98% 75.67 0.0
31 02:35 NE 11 2.01 Fog/Mist OVC003 16.2 15.8 98% 75.72 0.0
31 02:15 NE 13 4.02 Fog/Mist OVC003 16.5 16 97% 75.69 0.0
31 01:55 E 13 6.44 Fog/Mist OVC003 16.8 16.5 98% 75.72 0.0
31 01:35 E 20 G 28 8.05 Fog/Mist OVC003 16.8 16.4 98% 75.74 0.0
31 00:55 NE 15 11.27 Overcast OVC003 16.7 16.2 17.1 16.4 97% 75.84 0.0
31 00:35 NE 17 G 31 8.05 Light Rain OVC003 17 16.5 97% 75.84 0.0
31 00:15 NE 15 G 28 11.27 Light Rain OVC003 17.1 16.6 97% 75.84 0.0
30 23:55 NE 22 6.44 Light Rain OVC003 16.5 16 97% 75.87 0.0
30 23:35 NE 20 G 30 8.05 Rain OVC003 16.7 16.1 96% 75.84 0.0
30 23:20 NE 19 8.05 Light Rain OVC003 16.7 16.1 96% 75.84 0.0
30 22:55 NE 9 11.27 Overcast OVC003 16.7 16.1 96% 75.9 0.0
30 22:35 NE 15 11.27 Overcast OVC003 16.6 16 96% 75.87 0.0
30 22:15 NE 17 11.27 Overcast OVC003 16.5 15.8 96% 75.9 0.0
30 21:55 NE 15 11.27 Overcast OVC003 16.5 15.8 96% 75.87 0.0
30 21:35 NE 17 11.27 Overcast OVC003 16.5 15.8 96% 75.87 0.0
30 21:15 NE 15 G 28 11.27 Overcast OVC003 16.5 15.8 96% 75.9 0.0
30 20:55 NE 19 G 26 11.27 Overcast OVC003 16.6 16 96% 75.87 0.0
30 20:35 NE 19 G 28 16.09 Overcast OVC003 16.6 16 96% 75.87 0.0
30 20:15 NE 24 G 33 16.09 Overcast OVC003 16.8 16.1 96% 75.87 0.0
30 19:55 NE 20 16.09 Overcast OVC003 17 16.2 95% 75.87 0.0
30 19:35 NE 17 G 30 11.27 Overcast OVC003 16.8 16.1 96% 75.9 0.0
30 19:15 NE 17 11.27 Overcast OVC003 16.8 16 95% 75.92 0.0
30 18:55 NE 19 G 28 16.09 Overcast OVC003 16.8 16 18.3 16.8 95% 75.9 0.0
30 18:35 NE 20 G 28 16.09 Overcast OVC003 17 16 94% 75.92 0.0
30 18:15 NE 19 G 31 16.09 Overcast OVC003 17 16 94% 75.95 0.0
30 17:55 NE 20 G 30 16.09 Overcast OVC003 17.3 16.1 93% 75.92 0.0
30 17:35 NE 20 G 33 16.09 Overcast OVC003 17.6 16.2 92% 75.92 0.0
30 17:15 NE 20 G 30 16.09 Overcast OVC003 17.5 16.2 92% 75.92 0.0
30 16:55 NE 20 G 26 16.09 Overcast OVC003 17.7 16.2 91% 75.95 0.0
30 16:35 NE 24 G 35 16.09 Overcast OVC005 17.6 16.2 92% 75.92 0.0
30 16:15 NE 20 G 31 16.09 Overcast OVC005 17.4 16.1 92% 75.97 0.0
30 15:55 NE 26 G 37 16.09 Overcast OVC005 17.3 16 92% 75.97 0.0
30 15:35 NE 20 G 37 16.09 Overcast OVC005 17.6 16 90% 75.97 0.0
30 15:15 NE 26 G 39 16.09 Overcast OVC005 18.1 16.2 89% 75.97 0.0
30 14:55 NE 22 G 37 16.09 Overcast OVC003 17.8 16.2 90% 75.97 0.0
30 14:35 NE 20 G 30 16.09 Overcast OVC003 17.2 16.2 94% 75.97 0.0
30 14:15 NE 26 G 35 16.09 Overcast OVC003 17.5 16.2 92% 75.95 0.0
30 13:55 NE 22 G 35 16.09 Overcast OVC003 17.8 16.5 92% 75.97 0.0
30 13:35 NE 20 G 28 16.09 Overcast OVC003 18.2 16.6 90% 75.97 0.0
30 13:15 NE 22 G 33 16.09 Overcast OVC003 17.7 16.7 94% 75.97 0.0
30 12:55 NE 17 G 28 11.27 Overcast OVC003 17 16.3 17.5 16.7 96% 76 0.0
30 12:35 NE 22 G 30 16.09 Overcast OVC003 17.2 16.4 95% 76 0.0
30 12:15 NE 17 G 35 16.09 Overcast OVC003 17.2 16.4 95% 76.02 0.0
30 11:55 NE 15 G 28 16.09 Overcast OVC003 17.5 16.8 96% 76 0.0
30 11:35 NE 19 G 28 11.27 Overcast OVC003 17 16.4 96% 76 0.0
30 11:15 NE 15 11.27 Light Rain OVC003 17 16.3 96% 76 0.0
30 10:55 NE 19 11.27 Light Rain OVC003 17 16.5 97% 76.02 0.0
30 10:35 NE 17 G 26 3.22 Light Rain OVC003 16.8 16.2 96% 76.02 0.0
30 10:15 NE 13 11.27 Light Rain OVC003 17 16.3 96% 76.05 0.0
30 09:55 NE 13 16.09 Light Drizzle OVC003 17.2 16.4 95% 76.05 0.0
30 09:35 NE 15 G 26 16.09 Overcast OVC003 17 16.3 96% 76 0.0
30 09:15 NE 15 16.09 Overcast OVC003 17 16.5 97% 75.97 0.0
30 08:55 NE 15 16.09 Overcast OVC003 17 16.5 97% 75.97 0.0
30 08:35 NE 15 8.05 Fog/Mist OVC003 16.9 16.5 98% 75.97 0.0
30 08:15 NE 17 6.44 Fog/Mist OVC003 17 16.5 97% 75.97 0.0
30 07:55 NE 15 3.22 Fog/Mist OVC003 17 16.5 97% 76 0.0
30 07:35 NE 11 2.82 Fog/Mist OVC003 17 16.5 97% 76.02 0.0
30 07:15 NE 15 3.22 Fog/Mist OVC003 17 16.5 97% 75.97 0.0
30 06:55 NE 13 4.83 Fog/Mist OVC003 17 16.5 17 16.7 97% 75.97 0.0
30 06:35 NE 9 16.09 Overcast OVC003 17 16.5 97% 75.97 0.0
30 06:15 NE 15 16.09 Overcast OVC003 17 16.5 97% 75.92 0.0
30 05:55 NE 15 11.27 Overcast OVC003 17 16.5 97% 75.95 0.0
30 05:35 NE 11 11.27 Overcast OVC003 17 16.5 97% 75.95 0.0
30 05:15 NE 11 11.27 Overcast OVC003 16.9 16.4 97% 75.95 0.0
30 05:00 NE 11 8.05 Fog/Mist OVC003 16.8 16.3 97% 75.92 0.0
30 04:35 NE 11 16.09 Overcast OVC003 16.8 16.2 96% 75.92 0.0
30 04:15 NE 11 16.09 Overcast OVC003 16.8 16.2 96% 75.92 0.0
30 03:55 NE 9 16.09 Overcast OVC003 17 16.3 96% 75.92 0.0
30 03:35 NE 9 16.09 Overcast OVC003 17 16.5 97% 75.9 0.0
30 03:15 NE 7 16.09 Overcast OVC003 17 16.5 97% 75.92 0.0
30 02:55 NE 7 16.09 Overcast OVC003 17 16.5 97% 75.92 0.0
30 02:35 NE 11 16.09 Overcast OVC003 17 16.4 96% 75.92 0.0
30 02:15 NE 7 16.09 Overcast OVC005 17 16.3 96% 75.92 0.0
30 01:55 NE 6 16.09 Overcast OVC005 17 16.3 96% 75.95 0.0
30 01:35 E 11 16.09 Overcast OVC005 16.9 16.2 96% 75.97 0.0
30 01:15 NE 11 16.09 Overcast OVC005 16.8 16.2 96% 75.97 0.0
30 01:00 NE 7 16.09 Overcast OVC005 16.8 16.1 96% 76 0.0
30 00:35 NE 9 16.09 Overcast OVC005 16.7 16.1 96% 76 0.0
30 00:15 NE 11 16.09 Overcast OVC003 16.6 16 96% 76.02 0.0
29 23:55 NE 7 16.09 Overcast OVC003 16.5 16 97% 76.02 0.0
29 23:35 NE 7 16.09 Overcast OVC003 16.5 16 97% 76 0.0
29 23:15 NE 9 16.09 Overcast OVC003 16.5 15.8 96% 76 0.0
29 22:55 NE 11 16.09 Overcast OVC005 16.5 15.8 96% 76 0.0
29 22:35 NE 9 16.09 Overcast OVC005 16.5 15.8 96% 76 0.0
29 22:15 NE 9 16.09 Overcast OVC005 16.5 15.8 96% 75.97 0.0
29 21:55 NE 13 16.09 Overcast OVC005 16.5 16 97% 75.97 0.0
29 21:35 NE 7 16.09 Overcast OVC003 16.6 16 96% 76 0.0
29 21:15 NE 7 16.09 Overcast OVC003 16.6 16 96% 75.97 0.0
29 20:55 NE 7 16.09 Overcast OVC003 16.7 16 96% 75.97 0.0
29 20:35 NE 9 16.09 Overcast OVC003 16.8 16.2 96% 75.95 0.0
29 20:15 NE 9 16.09 Overcast OVC003 17 16.3 96% 75.92 0.0
29 19:55 NE 7 16.09 Overcast OVC003 17.1 16.5 96% 75.95 0.0
29 19:35 N 9 16.09 Overcast OVC003 17.5 16.8 96% 75.95 0.0
29 19:15 NE 6 11.27 Overcast OVC003 17.5 17 97% 75.95 0.0
29 18:55 NE 6 6.44 Fog/Mist BKN005 OVC027 17.2 16.6 19.7 16.8 96% 75.97 0.0
29 18:35 NE 7 8.05 Fog/Mist BKN005 BKN016 OVC027 17 16.4 96% 75.97 0.0
29 18:15 NE 9 6.44 Fog/Mist BKN005 OVC017 16.8 16 95% 75.97 0.0
29 17:55 NE 9 8.05 Fog/Mist BKN005 OVC021 17 16 94% 75.97 0.0
29 17:35 NE 11 8.05 Fog/Mist SCT005 BKN019 OVC025 17 15.8 93% 75.97 0.0
29 17:15 NE 13 16.09 Overcast SCT005 OVC025 17 15.7 92% 75.95 0.0
29 16:55 NE 11 16.09 Overcast SCT005 OVC031 17.1 15.7 92% 75.95 0.0
29 16:35 NE 9 16.09 Overcast SCT007 SCT021 OVC031 17.2 15.7 91% 75.95 0.0
Date Time (cdt) Wind (kph) Vis. (km) Weather Sky Cond. Air Dwpt Max. Min. Relative Humidity Wind Chill (°C) Heat Index (°C) altimeter (cm) sea level (mb) 1 hr 3 hr 6 hr
6 hour
Temperature (ºC) Pressure Precipitation (cm)